»·PEaware :: N42SB KBFL-KSBP

N42SB :: KBFL-KSBP

FLIGHT INFORMATION

Flight Status: Arrived
Operator: Privately registered:
United States
More flights under this callsign
Pilot: Brody Z. (18981)
Aircraft: CESSNA 172 SKYHAWK
(C172)
More flights by this aircraft type
Origin: KBFL Meadows
United States
Destination: KSBP San Luis Co Regl
United States
More flights between these airports :: More routes between these airports
Route: +
File this flight plan on PilotEdge
Remarks:
Altitude:
(Current/Filed)
10,500ft
Speed:
(Current/Filed)
0kts
Departed: 01-Aug-18 02:26 PM
Arrived: 01-Aug-18 03:19 PM
Distance/Time
Traveled:
78nm/0:53
Distance/Time
To Go:
Arrived

Flight Plot

Page will automatically refresh every two minutes.


Map Options




Map Legend


Flown Route
Filed Route
Departure Airport
Arrival Airport
Navaid (VOR, NDB)
Fix

Horizontal Profiles

Position Reports

Time Latitude Longitude Heading Altitude Ground
Speed
01-Aug-18 14:26 35.153781 -119.800981 245 10477ft 102kts
01-Aug-18 14:27 35.146978 -119.825401 277 10478ft 103kts
01-Aug-18 14:28 35.150932 -119.851220 279 10482ft 103kts
01-Aug-18 14:29 35.154874 -119.877344 278 10485ft 103kts
01-Aug-18 14:30 35.159555 -119.910624 278 10490ft 104kts
01-Aug-18 14:31 35.164453 -119.945389 278 10495ft 104kts
01-Aug-18 14:32 35.166545 -119.960207 278 10497ft 104kts
01-Aug-18 14:33 35.168027 -119.970709 278 10498ft 104kts
01-Aug-18 14:34 35.169862 -119.983730 278 10500ft 104kts
01-Aug-18 14:35 35.171714 -119.996877 278 10502ft 104kts
01-Aug-18 14:36 35.173569 -120.010035 278 10504ft 104kts
01-Aug-18 14:37 35.175168 -120.021307 278 10415ft 99kts
01-Aug-18 14:38 35.178716 -120.042995 278 9918ft 100kts
01-Aug-18 14:39 35.181771 -120.063453 278 9455ft 97kts
01-Aug-18 14:40 35.183824 -120.083962 270 8871ft 102kts
01-Aug-18 14:41 35.184724 -120.104066 270 8356ft 100kts
01-Aug-18 14:42 35.185965 -120.124403 273 7825ft 99kts
01-Aug-18 14:43 35.187660 -120.144385 272 7299ft 98kts
01-Aug-18 14:44 35.188723 -120.164146 269 6782ft 96kts
01-Aug-18 14:45 35.188414 -120.181845 263 6306ft 94kts
01-Aug-18 14:46 35.186625 -120.197637 257 5873ft 93kts
01-Aug-18 14:47 35.185740 -120.214787 277 5444ft 89kts
01-Aug-18 14:48 35.187693 -120.233308 273 4902ft 91kts
01-Aug-18 14:49 35.188098 -120.250361 277 4480ft 85kts
01-Aug-18 14:50 35.191167 -120.270045 279 4515ft 92kts
01-Aug-18 14:51 35.191935 -120.288588 268 4513ft 86kts
01-Aug-18 14:52 35.191653 -120.309228 268 4521ft 107kts
01-Aug-18 14:53 35.191339 -120.329627 268 4508ft 94kts
01-Aug-18 14:54 35.191058 -120.349000 268 4509ft 90kts
01-Aug-18 14:55 35.190895 -120.360636 268 4509ft 89kts
01-Aug-18 14:56 35.191600 -120.368594 282 4508ft 89kts
01-Aug-18 14:57 35.194369 -120.381924 282 4507ft 89kts
01-Aug-18 14:58 35.196177 -120.390565 282 4511ft 97kts
01-Aug-18 14:59 35.198169 -120.400132 282 4506ft 96kts
01-Aug-18 15:00 35.200369 -120.410671 282 4505ft 95kts
01-Aug-18 15:01 35.202580 -120.421232 282 4504ft 95kts
01-Aug-18 15:02 35.205047 -120.432995 282 4503ft 95kts
01-Aug-18 15:03 35.207514 -120.444723 282 4502ft 94kts
01-Aug-18 15:04 35.209992 -120.456476 282 4501ft 94kts
01-Aug-18 15:05 35.212471 -120.468216 282 4500ft 94kts
01-Aug-18 15:06 35.214821 -120.481515 282 4491ft 80kts
01-Aug-18 15:07 35.217967 -120.500493 282 4480ft 54kts
01-Aug-18 15:08 35.217873 -120.510906 264 4133ft 80kts
01-Aug-18 15:09 35.216326 -120.520406 261 3809ft 93kts
01-Aug-18 15:10 35.214293 -120.531396 259 3377ft 98kts
01-Aug-18 15:11 35.212001 -120.542434 259 2957ft 100kts
01-Aug-18 15:12 35.209885 -120.552241 259 2612ft 100kts
01-Aug-18 15:13 35.206997 -120.565185 259 2154ft 99kts
01-Aug-18 15:14 35.204812 -120.576711 274 1733ft 97kts
01-Aug-18 15:15 35.206483 -120.588473 291 1354ft 89kts
01-Aug-18 15:16 35.214417 -120.601153 308 972ft 84kts
01-Aug-18 15:17 35.221145 -120.613229 303 657ft 83kts
01-Aug-18 15:18 35.227702 -120.624275 307 478ft 67kts
01-Aug-18 15:19 35.232922 -120.633290 305 271ft 66kts
01-Aug-18 15:20 35.236996 -120.640376 305 215ft 17kts
01-Aug-18 15:21 35.237772 -120.640766 86 215ft 5kts
01-Aug-18 15:22 35.237960 -120.638467 70 215ft 17kts
01-Aug-18 15:23 35.238053 -120.638145 78 215ft 0kts
01-Aug-18 15:24 35.238053 -120.638145 78 215ft 0kts

Navigation Log

Ident Type
1. KBFL Airport
2. KSBP Airport